createdAt,value
2023-01-12T00:01:34.080Z,74.66
2023-01-12T00:04:03.306Z,74.56
2023-01-12T00:06:32.419Z,74.95
2023-01-12T00:08:59.576Z,74.89
2023-01-12T00:11:26.481Z,74.93
2023-01-12T00:13:53.228Z,75.04
2023-01-12T00:16:40.733Z,75.14
2023-01-12T00:19:11.439Z,75.35
2023-01-12T00:21:49.078Z,75.13
2023-01-12T00:24:17.877Z,74.99
2023-01-12T00:26:45.619Z,75.28
2023-01-12T00:29:12.475Z,75.34
2023-01-12T00:31:39.454Z,75.26
2023-01-12T00:34:06.536Z,75.21
2023-01-12T00:36:33.585Z,75.19
2023-01-12T00:39:00.435Z,75.49
2023-01-12T00:41:46.114Z,75.18
2023-01-12T00:44:32.128Z,75.29
2023-01-12T00:46:58.991Z,75.44
2023-01-12T00:49:25.783Z,75.22
2023-01-12T00:51:52.631Z,75.31
2023-01-12T00:54:19.472Z,75.31
2023-01-12T00:56:46.427Z,75.64
2023-01-12T00:59:13.241Z,75.60
2023-01-12T01:01:40.164Z,75.51
2023-01-12T01:04:07.293Z,75.45
2023-01-12T01:06:37.286Z,75.38
2023-01-12T01:09:04.214Z,75.36
2023-01-12T01:11:31.047Z,75.64
2023-01-12T01:13:59.258Z,75.34
2023-01-12T01:16:26.344Z,75.41
2023-01-12T01:18:53.184Z,75.61
2023-01-12T01:21:20.005Z,75.51
2023-01-12T01:23:46.924Z,75.51
2023-01-12T01:26:16.148Z,75.50
2023-01-12T01:28:43.173Z,75.69
2023-01-12T01:31:12.401Z,75.53
2023-01-12T01:33:39.895Z,75.39
2023-01-12T01:36:07.087Z,75.51
2023-01-12T01:38:33.958Z,75.79
2023-01-12T01:41:00.811Z,75.82
2023-01-12T01:43:28.390Z,75.93
2023-01-12T01:46:01.219Z,76.19
2023-01-12T01:48:28.191Z,76.27
2023-01-12T01:50:58.895Z,75.87
2023-01-12T01:53:28.427Z,75.88
2023-01-12T01:55:59.346Z,75.88
2023-01-12T01:58:32.195Z,75.64
2023-01-12T02:00:59.131Z,76.09
2023-01-12T02:03:26.242Z,76.10
2023-01-12T02:05:53.058Z,76.04
2023-01-12T02:08:22.639Z,75.77
2023-01-12T02:10:50.614Z,76.28
2023-01-12T02:13:36.213Z,76.46
2023-01-12T02:16:27.245Z,76.34
2023-01-12T02:18:57.107Z,76.15
2023-01-12T02:21:42.306Z,76.33
2023-01-12T02:24:47.061Z,76.68
2023-01-12T02:27:43.381Z,76.61
2023-01-12T02:30:39.559Z,76.76
2023-01-12T02:33:24.294Z,76.94
2023-01-12T02:35:57.129Z,77.43
2023-01-12T02:38:31.364Z,77.29
2023-01-12T02:41:09.767Z,77.64
2023-01-12T02:43:36.702Z,77.93
2023-01-12T02:46:11.945Z,78.22
2023-01-12T02:48:48.891Z,78.45
2023-01-12T02:51:15.741Z,78.45
2023-01-12T02:53:53.351Z,78.85
2023-01-12T02:56:32.973Z,79.10
2023-01-12T02:59:11.743Z,78.95
2023-01-12T03:01:38.687Z,78.69
2023-01-12T03:04:06.461Z,78.40
2023-01-12T03:06:51.971Z,78.51
2023-01-12T03:09:18.817Z,78.79
2023-01-12T03:11:46.550Z,78.93
2023-01-12T03:14:13.351Z,78.99
2023-01-12T03:16:40.354Z,79.16
2023-01-12T03:19:16.355Z,79.71
2023-01-12T03:21:47.563Z,79.69
2023-01-12T03:24:15.945Z,79.70
2023-01-12T03:26:46.853Z,79.84
2023-01-12T03:29:26.031Z,79.88
2023-01-12T03:31:52.900Z,79.88
2023-01-12T03:34:19.679Z,80.21
2023-01-12T03:37:15.498Z,80.33
2023-01-12T03:39:58.510Z,80.37
2023-01-12T03:42:31.934Z,80.58
2023-01-12T03:45:19.913Z,80.91
2023-01-12T03:47:46.659Z,80.81
2023-01-12T03:50:18.849Z,80.82
2023-01-12T03:52:45.667Z,80.70
2023-01-12T03:55:14.613Z,80.44
2023-01-12T03:57:41.444Z,80.67
2023-01-12T04:00:11.378Z,80.65
2023-01-12T04:02:44.877Z,81.09
2023-01-12T04:05:14.007Z,81.30
2023-01-12T04:07:40.777Z,81.33
2023-01-12T04:10:08.029Z,81.41
2023-01-12T04:12:34.985Z,81.69
2023-01-12T04:15:01.857Z,81.74
2023-01-12T04:17:29.347Z,82.04
2023-01-12T04:19:56.294Z,82.21
2023-01-12T04:22:41.851Z,82.20
2023-01-12T04:25:19.383Z,82.59
2023-01-12T04:27:48.985Z,83.03
2023-01-12T04:30:17.064Z,83.01
2023-01-12T04:32:44.394Z,83.31
2023-01-12T04:35:12.555Z,83.46
2023-01-12T04:37:39.560Z,83.60
2023-01-12T04:40:07.336Z,83.23
2023-01-12T04:42:53.166Z,83.60
2023-01-12T04:45:20.048Z,83.88
2023-01-12T04:47:46.872Z,84.15
2023-01-12T04:50:13.758Z,84.21
2023-01-12T04:52:40.815Z,84.44
2023-01-12T04:55:07.951Z,84.56
2023-01-12T04:57:35.232Z,84.62
2023-01-12T05:00:02.586Z,84.45
2023-01-12T05:02:29.681Z,84.54
2023-01-12T05:04:57.003Z,84.83
2023-01-12T05:07:24.485Z,85.08
2023-01-12T05:10:09.959Z,85.38
2023-01-12T05:12:37.168Z,85.49
2023-01-12T05:15:04.473Z,85.62
2023-01-12T05:17:33.052Z,85.68
2023-01-12T05:20:01.069Z,85.55
2023-01-12T05:22:28.348Z,85.64
2023-01-12T05:24:55.288Z,85.70
2023-01-12T05:27:22.383Z,85.99
2023-01-12T05:29:49.624Z,85.90
2023-01-12T05:32:16.526Z,85.99
2023-01-12T05:34:43.427Z,85.85
2023-01-12T05:37:10.332Z,85.60
2023-01-12T05:39:37.209Z,85.99
2023-01-12T05:42:22.930Z,86.28
2023-01-12T05:44:49.849Z,86.84
2023-01-12T05:47:16.694Z,86.64
2023-01-12T05:49:43.634Z,86.66
2023-01-12T05:52:10.732Z,86.50
2023-01-12T05:54:37.815Z,86.85
2023-01-12T05:57:04.946Z,86.97
2023-01-12T05:59:32.091Z,87.57
2023-01-12T06:01:59.148Z,87.58
2023-01-12T06:04:26.252Z,87.18
2023-01-12T06:06:53.428Z,86.80
2023-01-12T06:09:20.351Z,87.00
2023-01-12T06:12:05.971Z,87.21
2023-01-12T06:14:32.912Z,87.34
2023-01-12T06:16:59.675Z,87.47
2023-01-12T06:19:26.518Z,87.44
2023-01-12T06:21:55.294Z,87.21
2023-01-12T06:24:22.230Z,87.45
2023-01-12T06:26:49.069Z,87.72
2023-01-12T06:29:15.837Z,88.15
2023-01-12T06:31:44.064Z,88.30
2023-01-12T06:34:12.191Z,88.19
2023-01-12T06:36:39.511Z,88.01
2023-01-12T06:39:06.392Z,88.04
2023-01-12T06:41:53.126Z,88.61
2023-01-12T06:44:19.990Z,88.79
2023-01-12T06:46:46.968Z,89.09
2023-01-12T06:49:13.794Z,89.05
2023-01-12T06:51:40.598Z,88.57
2023-01-12T06:54:07.587Z,88.78
2023-01-12T06:58:26.015Z,89.46
2023-01-12T07:00:52.946Z,89.49
2023-01-12T07:03:20.018Z,89.21
2023-01-12T07:05:46.836Z,89.05
2023-01-12T07:08:16.208Z,89.31
2023-01-12T07:10:43.294Z,89.54
2023-01-12T07:13:10.163Z,89.90
2023-01-12T07:15:37.088Z,89.77
2023-01-12T07:18:03.941Z,89.43
2023-01-12T07:20:32.359Z,89.36
2023-01-12T07:22:59.363Z,89.40
2023-01-12T07:25:26.449Z,89.55
2023-01-12T07:27:54.895Z,89.56
2023-01-12T07:30:21.978Z,89.65
2023-01-12T07:32:49.323Z,89.61
2023-01-12T07:35:16.386Z,89.11
2023-01-12T07:37:51.292Z,89.32
2023-01-12T07:40:18.202Z,89.41
2023-01-12T07:42:45.099Z,89.35
2023-01-12T07:45:12.554Z,89.43
2023-01-12T07:47:39.731Z,89.24
2023-01-12T07:50:06.851Z,89.47
2023-01-12T07:52:33.906Z,89.56
2023-01-12T07:55:00.684Z,89.53
2023-01-12T07:57:28.806Z,89.56
2023-01-12T07:59:55.573Z,89.07
2023-01-12T08:02:22.438Z,88.53
2023-01-12T08:04:49.468Z,88.60
2023-01-12T08:07:16.337Z,88.57
2023-01-12T08:09:43.502Z,88.70
2023-01-12T08:12:10.445Z,88.83
2023-01-12T08:14:38.247Z,88.44
2023-01-12T08:17:17.728Z,88.39
2023-01-12T08:19:54.292Z,88.72
2023-01-12T08:22:24.793Z,88.99
2023-01-12T08:24:55.127Z,88.87
2023-01-12T08:27:25.178Z,88.81
2023-01-12T08:29:55.517Z,88.67
2023-01-12T08:32:22.485Z,88.92
2023-01-12T08:34:51.059Z,88.92
2023-01-12T08:37:20.166Z,89.20
2023-01-12T08:39:47.039Z,89.16
2023-01-12T08:42:13.838Z,88.85
2023-01-12T08:44:41.086Z,88.68
2023-01-12T08:47:27.459Z,88.68
2023-01-12T08:49:54.949Z,89.17
2023-01-12T08:52:21.950Z,89.26
2023-01-12T08:54:49.624Z,89.28
2023-01-12T08:57:17.041Z,88.89
2023-01-12T08:59:43.799Z,88.41
2023-01-12T09:02:12.308Z,88.29
2023-01-12T09:04:40.575Z,88.18
2023-01-12T09:07:10.981Z,88.26
2023-01-12T09:09:38.071Z,87.76
2023-01-12T09:12:05.008Z,87.20
2023-01-12T09:14:38.425Z,86.90
2023-01-12T09:17:06.778Z,86.91
2023-01-12T09:19:33.774Z,87.07
2023-01-12T09:22:03.659Z,87.35
2023-01-12T09:24:30.512Z,87.49
2023-01-12T09:26:57.350Z,87.51
2023-01-12T09:29:24.180Z,87.03
2023-01-12T09:31:51.203Z,86.84
2023-01-12T09:34:18.288Z,86.81
2023-01-12T09:36:45.378Z,86.42
2023-01-12T09:39:26.271Z,86.29
2023-01-12T09:42:12.748Z,86.09
2023-01-12T09:45:03.198Z,86.07
2023-01-12T09:47:52.725Z,86.20
2023-01-12T09:50:33.663Z,86.64
2023-01-12T09:53:31.540Z,86.86
2023-01-12T09:56:01.806Z,86.82
2023-01-12T09:58:53.307Z,86.60
2023-01-12T10:01:28.691Z,86.86
2023-01-12T10:03:56.299Z,87.07
2023-01-12T10:06:23.121Z,87.45
2023-01-12T10:08:56.277Z,87.41
2023-01-12T10:11:25.934Z,87.04
2023-01-12T10:14:03.893Z,86.83
2023-01-12T10:17:05.206Z,86.82
2023-01-12T10:19:46.856Z,86.94
2023-01-12T10:22:38.280Z,87.41
2023-01-12T10:25:29.708Z,87.50
2023-01-12T10:27:59.600Z,86.89
2023-01-12T10:30:31.934Z,86.99
2023-01-12T10:33:14.298Z,87.21
2023-01-12T10:35:49.461Z,87.19
2023-01-12T10:38:22.186Z,87.09
2023-01-12T10:41:06.888Z,86.86
2023-01-12T10:43:36.679Z,86.63
2023-01-12T10:46:16.868Z,86.94
2023-01-12T10:48:49.250Z,87.41
2023-01-12T10:51:33.612Z,87.56
2023-01-12T10:54:10.952Z,87.38
2023-01-12T10:57:17.009Z,87.27
2023-01-12T10:59:54.161Z,86.49
2023-01-12T11:02:22.860Z,86.27
2023-01-12T11:04:52.441Z,86.18
2023-01-12T11:07:22.004Z,86.31
2023-01-12T11:09:49.249Z,86.35
2023-01-12T11:12:37.899Z,86.10
2023-01-12T11:15:20.746Z,85.71
2023-01-12T11:18:09.155Z,85.24
2023-01-12T11:20:55.027Z,85.37
2023-01-12T11:23:33.753Z,85.59
2023-01-12T11:26:05.786Z,86.02
2023-01-12T11:28:44.704Z,86.10
2023-01-12T11:31:14.651Z,86.23
2023-01-12T11:33:49.728Z,86.28
2023-01-12T11:36:23.549Z,86.67
2023-01-12T11:39:05.091Z,86.80
2023-01-12T11:41:40.023Z,87.17
2023-01-12T11:44:59.292Z,87.02
2023-01-12T11:47:28.802Z,86.98
2023-01-12T11:50:17.927Z,87.10
2023-01-12T11:52:45.018Z,87.14
2023-01-12T11:55:16.638Z,86.96
2023-01-12T11:57:52.782Z,87.03
2023-01-12T12:00:37.702Z,86.59
2023-01-12T12:03:26.434Z,85.98
2023-01-12T12:06:27.699Z,85.67
2023-01-12T12:09:05.951Z,85.93
2023-01-12T12:11:54.979Z,86.25
2023-01-12T12:14:55.292Z,86.24
2023-01-12T12:17:54.809Z,85.98
2023-01-12T12:21:01.047Z,86.10
2023-01-12T12:23:34.988Z,86.48
2023-01-12T12:26:27.025Z,86.77
2023-01-12T12:29:24.584Z,87.08
2023-01-12T12:32:03.481Z,86.93
2023-01-12T12:34:44.205Z,86.79
2023-01-12T12:37:30.036Z,87.06
2023-01-12T12:39:58.940Z,87.35
2023-01-12T12:43:12.854Z,87.57
2023-01-12T12:46:10.649Z,87.29
2023-01-12T12:48:47.204Z,87.28
2023-01-12T12:51:14.013Z,87.56
2023-01-12T12:53:46.013Z,87.67
2023-01-12T12:56:14.734Z,87.80
2023-01-12T12:58:43.274Z,87.91
2023-01-12T13:01:25.582Z,87.44
2023-01-12T13:04:06.610Z,87.48
2023-01-12T13:06:44.082Z,87.79
2023-01-12T13:09:16.922Z,87.80
2023-01-12T13:11:54.396Z,88.01
2023-01-12T13:14:34.306Z,87.66
2023-01-12T13:17:02.035Z,87.34
2023-01-12T13:19:36.342Z,87.14
2023-01-12T13:22:37.487Z,87.54
2023-01-12T13:25:10.537Z,87.71
2023-01-12T13:28:01.883Z,87.82
2023-01-12T13:30:29.744Z,87.84
2023-01-12T13:33:17.115Z,87.46
2023-01-12T13:35:45.105Z,87.34
2023-01-12T13:38:27.870Z,87.47
2023-01-12T13:41:02.786Z,87.53
2023-01-12T13:43:38.889Z,87.63
2023-01-12T13:46:15.295Z,87.68
2023-01-12T13:48:44.191Z,87.26
2023-01-12T13:51:36.311Z,86.96
2023-01-12T13:54:12.696Z,86.96
2023-01-12T13:56:40.126Z,86.79
2023-01-12T13:59:08.169Z,86.95
2023-01-12T14:01:40.311Z,87.22
2023-01-12T14:04:13.603Z,86.87
2023-01-12T14:06:45.097Z,86.62
2023-01-12T14:09:48.851Z,87.07
2023-01-12T14:12:55.735Z,87.30
2023-01-12T14:15:44.797Z,87.61
2023-01-12T14:18:15.888Z,87.78
2023-01-12T14:20:47.644Z,87.41
2023-01-12T14:23:26.727Z,87.19
2023-01-12T14:26:10.503Z,87.73
2023-01-12T14:28:38.136Z,88.00
2023-01-12T14:31:06.250Z,87.96
2023-01-12T14:33:34.482Z,87.82
2023-01-12T14:36:06.283Z,87.81
2023-01-12T14:38:36.317Z,87.90
2023-01-12T14:41:06.031Z,88.28
2023-01-12T14:43:53.023Z,88.58
2023-01-12T14:46:26.684Z,88.34
2023-01-12T14:48:55.543Z,88.15
2023-01-12T14:51:35.012Z,87.84
2023-01-12T14:54:05.582Z,88.13
2023-01-12T14:56:39.011Z,88.31
2023-01-12T14:59:16.132Z,88.36
2023-01-12T15:01:43.240Z,88.77
2023-01-12T15:04:26.379Z,88.69
2023-01-12T15:07:01.524Z,88.92
2023-01-12T15:09:31.923Z,89.21
2023-01-12T15:11:58.903Z,89.48
2023-01-12T15:14:29.242Z,89.73
2023-01-12T15:17:14.973Z,89.83
2023-01-12T15:20:00.676Z,89.64
2023-01-12T15:22:46.864Z,89.69
2023-01-12T15:25:36.295Z,90.02
2023-01-12T15:28:04.547Z,90.36
2023-01-12T15:30:31.451Z,90.57
2023-01-12T15:32:58.386Z,90.25
2023-01-12T15:35:26.649Z,89.99
2023-01-12T15:37:55.598Z,90.09
2023-01-12T15:40:22.998Z,90.14
2023-01-12T15:42:52.993Z,90.22
2023-01-12T15:45:24.611Z,90.15
2023-01-12T15:47:51.622Z,89.97
2023-01-12T15:50:18.737Z,90.14
2023-01-12T15:52:45.685Z,90.52
2023-01-12T15:55:18.425Z,90.81
2023-01-12T15:57:45.514Z,90.99
2023-01-12T16:00:17.192Z,90.62
2023-01-12T16:02:49.917Z,90.54
2023-01-12T16:05:18.958Z,90.92
2023-01-12T16:07:48.415Z,91.18
2023-01-12T16:10:18.711Z,91.36
2023-01-12T16:12:48.139Z,90.88
2023-01-12T16:15:20.523Z,90.81
2023-01-12T16:17:47.642Z,90.96
2023-01-12T16:20:16.494Z,90.97
2023-01-12T16:22:44.334Z,90.88
2023-01-12T16:25:11.470Z,90.75
2023-01-12T16:27:38.779Z,90.14
2023-01-12T16:30:07.429Z,90.13
2023-01-12T16:32:34.546Z,90.48
2023-01-12T16:35:01.901Z,90.63
2023-01-12T16:37:34.506Z,90.70
2023-01-12T16:40:01.932Z,90.11
2023-01-12T16:42:29.346Z,89.72
2023-01-12T16:44:56.626Z,89.87
2023-01-12T16:47:24.723Z,90.18
2023-01-12T16:49:51.916Z,90.23
2023-01-12T16:52:20.326Z,90.33
2023-01-12T16:54:47.417Z,90.07
2023-01-12T16:57:15.650Z,90.21
2023-01-12T16:59:42.973Z,90.24
2023-01-12T17:02:16.767Z,90.79
2023-01-12T17:04:45.016Z,90.61
2023-01-12T17:07:12.019Z,90.54
2023-01-12T17:09:39.489Z,90.00
2023-01-12T17:12:06.880Z,90.15
2023-01-12T17:14:34.773Z,90.53
2023-01-12T17:17:04.859Z,90.64
2023-01-12T17:19:33.518Z,90.43
2023-01-12T17:22:02.247Z,90.17
2023-01-12T17:24:30.390Z,89.81
2023-01-12T17:26:57.659Z,89.92
2023-01-12T17:29:25.805Z,90.08
2023-01-12T17:31:53.872Z,89.90
2023-01-12T17:34:22.346Z,89.73
2023-01-12T17:36:49.166Z,89.44
2023-01-12T17:39:16.018Z,88.86
2023-01-12T17:42:01.701Z,88.91
2023-01-12T17:44:28.677Z,88.76
2023-01-12T17:46:55.427Z,88.74
2023-01-12T17:49:22.765Z,88.61
2023-01-12T17:51:50.831Z,88.43
2023-01-12T17:54:18.951Z,88.15
2023-01-12T17:56:45.952Z,88.29
2023-01-12T17:59:17.252Z,88.33
2023-01-12T18:01:44.355Z,88.32
2023-01-12T18:04:11.430Z,88.32
2023-01-12T18:06:38.535Z,88.12
2023-01-12T18:09:06.383Z,88.08
2023-01-12T18:11:33.598Z,88.03
2023-01-12T18:14:01.289Z,87.70
2023-01-12T18:16:28.553Z,87.76
2023-01-12T18:18:55.651Z,87.52
2023-01-12T18:21:24.100Z,87.59
2023-01-12T18:23:51.623Z,87.66
2023-01-12T18:26:25.490Z,87.88
2023-01-12T18:28:54.256Z,87.98
2023-01-12T18:31:23.554Z,87.85
2023-01-12T18:33:54.063Z,87.77
2023-01-12T18:36:24.743Z,88.21
2023-01-12T18:38:54.178Z,88.34
2023-01-12T18:41:41.953Z,88.25
2023-01-12T18:44:09.195Z,88.38
2023-01-12T18:47:02.261Z,88.29
2023-01-12T18:49:33.842Z,87.72
2023-01-12T18:52:20.098Z,87.59
2023-01-12T18:54:48.376Z,87.60
2023-01-12T18:57:19.273Z,87.53
2023-01-12T18:59:47.138Z,87.17
2023-01-12T19:02:14.954Z,87.05
2023-01-12T19:04:50.930Z,86.92
2023-01-12T19:07:46.823Z,86.91
2023-01-12T19:10:14.488Z,87.01
2023-01-12T19:12:46.088Z,87.04
2023-01-12T19:16:58.223Z,86.80
2023-01-12T19:19:27.298Z,87.06
2023-01-12T19:22:13.237Z,87.45
2023-01-12T19:24:58.819Z,87.68
2023-01-12T19:27:44.449Z,87.71
2023-01-12T19:30:12.005Z,87.83
2023-01-12T19:32:39.213Z,88.04
2023-01-12T19:35:11.179Z,87.89
2023-01-12T19:37:39.907Z,87.86
2023-01-12T19:40:18.012Z,87.70
2023-01-12T19:43:03.670Z,87.84
2023-01-12T19:45:30.837Z,88.11
2023-01-12T19:47:57.749Z,87.96
2023-01-12T19:50:24.833Z,88.22
2023-01-12T19:52:52.232Z,88.05
2023-01-12T19:55:19.268Z,87.85
2023-01-12T19:57:46.832Z,87.94
2023-01-12T20:00:15.258Z,88.19
2023-01-12T20:02:45.605Z,88.28
2023-01-12T20:05:13.701Z,88.29
2023-01-12T20:07:40.745Z,87.81
2023-01-12T20:10:09.168Z,87.34
2023-01-12T20:12:37.529Z,87.40
2023-01-12T20:15:04.789Z,87.61
2023-01-12T20:17:31.605Z,87.78
2023-01-12T20:19:58.592Z,87.87
2023-01-12T20:22:25.413Z,87.80
2023-01-12T20:24:52.326Z,87.88
2023-01-12T20:27:19.428Z,88.09
2023-01-12T20:29:46.356Z,88.35
2023-01-12T20:32:13.221Z,88.26
2023-01-12T20:34:40.299Z,88.22
2023-01-12T20:37:07.224Z,87.94
2023-01-12T20:39:34.790Z,87.78
2023-01-12T20:42:03.349Z,87.83
2023-01-12T20:44:30.596Z,88.13
2023-01-12T20:46:57.684Z,88.23
2023-01-12T20:49:24.682Z,88.01
2023-01-12T20:51:52.805Z,87.81
2023-01-12T20:54:20.421Z,87.76
2023-01-12T20:56:47.435Z,87.82
2023-01-12T20:59:15.406Z,87.87
2023-01-12T21:01:42.451Z,88.02
2023-01-12T21:04:09.401Z,87.80
2023-01-12T21:06:36.617Z,87.31
2023-01-12T21:09:04.612Z,87.50
2023-01-12T21:11:31.645Z,87.67
2023-01-12T21:13:58.498Z,87.84
2023-01-12T21:16:25.743Z,87.89
2023-01-12T21:18:52.764Z,87.72
2023-01-12T21:21:19.538Z,87.74
2023-01-12T21:23:46.424Z,87.97
2023-01-12T21:26:13.270Z,88.41
2023-01-12T21:28:40.335Z,88.74
2023-01-12T21:31:08.592Z,88.64
2023-01-12T21:33:35.651Z,88.39
2023-01-12T21:36:02.506Z,88.32
2023-01-12T21:38:29.438Z,88.37
2023-01-12T21:41:01.318Z,88.61
2023-01-12T21:43:28.175Z,88.85
2023-01-12T21:45:55.430Z,88.77
2023-01-12T21:48:22.725Z,88.88
2023-01-12T21:50:49.674Z,88.57
2023-01-12T21:53:18.990Z,88.53
2023-01-12T21:55:56.673Z,88.66
2023-01-12T21:58:24.503Z,88.49
2023-01-12T22:00:51.434Z,88.47
2023-01-12T22:03:18.300Z,88.10
2023-01-12T22:05:46.461Z,88.01
2023-01-12T22:08:13.514Z,88.33
2023-01-12T22:10:40.376Z,88.35
2023-01-12T22:13:10.209Z,88.42
2023-01-12T22:15:37.124Z,88.46
2023-01-12T22:18:04.516Z,88.08
2023-01-12T22:20:31.255Z,87.89
2023-01-12T22:22:58.091Z,88.20
2023-01-12T22:25:24.954Z,88.41
2023-01-12T22:27:51.940Z,88.42
2023-01-12T22:30:22.095Z,88.48
2023-01-12T22:32:49.018Z,88.20
2023-01-12T22:35:15.961Z,87.91
2023-01-12T22:37:42.676Z,88.38
2023-01-12T22:40:10.711Z,88.62
2023-01-12T22:42:56.413Z,88.81
2023-01-12T22:45:23.262Z,88.63
2023-01-12T22:47:54.110Z,88.29
2023-01-12T22:50:21.318Z,88.27
2023-01-12T22:52:52.906Z,88.30
2023-01-12T22:55:23.774Z,88.60
2023-01-12T22:57:50.522Z,88.88
2023-01-12T23:00:18.109Z,88.86
2023-01-12T23:03:00.311Z,88.84
2023-01-12T23:05:36.252Z,89.17
2023-01-12T23:08:04.414Z,89.25
2023-01-12T23:10:31.364Z,89.08
2023-01-12T23:13:17.842Z,89.07
2023-01-12T23:15:53.533Z,89.02
2023-01-12T23:18:22.204Z,88.71
2023-01-12T23:20:49.458Z,88.61
2023-01-12T23:23:18.262Z,88.66
2023-01-12T23:25:46.032Z,89.11
2023-01-12T23:28:13.279Z,89.20
2023-01-12T23:30:40.404Z,88.70
2023-01-12T23:33:07.250Z,88.62
2023-01-12T23:35:39.419Z,88.90
2023-01-12T23:38:07.216Z,89.20
2023-01-12T23:40:34.087Z,89.11
2023-01-12T23:43:01.683Z,88.71
2023-01-12T23:45:29.225Z,88.66
2023-01-12T23:47:56.105Z,88.98
2023-01-12T23:50:23.044Z,88.86
2023-01-12T23:52:52.736Z,89.11
2023-01-12T23:55:19.637Z,89.17
2023-01-12T23:57:48.013Z,88.79
